createdAt,value
2023-02-22T00:00:02.660Z,0
2023-02-22T00:15:03.087Z,0
2023-02-22T00:30:02.533Z,0
2023-02-22T00:45:02.966Z,0
2023-02-22T01:00:02.517Z,0
2023-02-22T01:15:02.829Z,0
2023-02-22T01:30:02.505Z,0
2023-02-22T01:45:02.726Z,0
2023-02-22T02:00:03.137Z,0
2023-02-22T02:15:02.575Z,0
2023-02-22T02:30:03.016Z,0
2023-02-22T02:45:02.540Z,0
2023-02-22T03:00:02.907Z,0
2023-02-22T03:15:02.544Z,0
2023-02-22T03:30:02.808Z,0
2023-02-22T03:45:03.266Z,0
2023-02-22T04:00:02.679Z,0
2023-02-22T04:15:03.124Z,0
2023-02-22T04:30:02.575Z,0
2023-02-22T04:45:03.012Z,0
2023-02-22T05:00:02.587Z,0
2023-02-22T05:15:02.863Z,0
2023-02-22T05:30:02.274Z,0
2023-02-22T05:45:02.735Z,0
2023-02-22T06:00:03.186Z,0
2023-02-22T06:15:02.610Z,0
2023-02-22T06:30:03.085Z,0
2023-02-22T06:45:02.662Z,3
2023-02-22T07:00:02.913Z,16
2023-02-22T07:15:02.583Z,28
2023-02-22T07:30:02.812Z,38
2023-02-22T07:45:03.248Z,61
2023-02-22T08:00:02.669Z,67
2023-02-22T08:15:03.153Z,85
2023-02-22T08:30:02.608Z,84
2023-02-22T08:45:03.056Z,141
2023-02-22T09:00:02.628Z,143
2023-02-22T09:15:02.918Z,162
2023-02-22T09:30:02.361Z,201
2023-02-22T09:45:02.810Z,234
2023-02-22T10:00:03.227Z,227
2023-02-22T10:15:02.674Z,244
2023-02-22T10:30:10.093Z,239
2023-02-22T10:45:02.635Z,218
2023-02-22T11:00:02.997Z,208
2023-02-22T11:15:02.781Z,213
2023-02-22T11:45:03.430Z,261
2023-02-22T12:00:02.842Z,253
2023-02-22T12:15:02.180Z,238
2023-02-22T12:30:02.643Z,234
2023-02-22T12:45:04.118Z,347
2023-02-22T13:15:02.982Z,229
2023-02-22T13:30:02.400Z,159
2023-02-22T13:45:02.834Z,157
2023-02-22T14:00:02.278Z,161
2023-02-22T14:15:02.716Z,140
2023-02-22T14:30:03.129Z,129
2023-02-22T14:45:02.698Z,125
2023-02-22T15:00:03.141Z,105
2023-02-22T15:15:02.672Z,78
2023-02-22T15:30:02.897Z,61
2023-02-22T15:45:02.324Z,42
2023-02-22T16:00:02.781Z,25
2023-02-22T16:15:03.237Z,15
2023-02-22T16:30:05.943Z,6
2023-02-22T16:45:03.110Z,0
2023-02-22T17:00:02.692Z,0
2023-02-22T17:15:02.964Z,0
2023-02-22T17:30:02.414Z,0
2023-02-22T17:45:02.882Z,0
2023-02-22T18:00:02.287Z,0
2023-02-22T18:15:02.737Z,0
2023-02-22T18:30:03.191Z,0
2023-02-22T18:45:02.744Z,0
2023-02-22T19:00:03.058Z,0
2023-02-22T19:15:02.720Z,0
2023-02-22T19:30:02.948Z,0
2023-02-22T19:45:02.347Z,0
2023-02-22T20:00:02.829Z,0
2023-02-22T20:15:02.252Z,0
2023-02-22T20:30:02.738Z,0
2023-02-22T20:45:03.137Z,0
2023-02-22T21:00:02.736Z,0
2023-02-22T21:15:03.037Z,0
2023-02-22T21:30:02.486Z,0
2023-02-22T21:45:02.902Z,0
2023-02-22T22:00:02.344Z,0
2023-02-22T22:15:02.780Z,0
2023-02-22T22:30:02.177Z,0
2023-02-22T22:45:02.756Z,0
2023-02-22T23:00:02.084Z,0
2023-02-22T23:30:02.991Z,0
2023-02-22T23:45:02.380Z,0
